createdAt,value
2023-01-27T00:01:00.794Z,3.75
2023-01-27T00:03:27.380Z,3.84
2023-01-27T00:05:53.964Z,3.87
2023-01-27T00:08:20.568Z,3.92
2023-01-27T00:10:47.134Z,3.95
2023-01-27T00:13:32.380Z,3.97
2023-01-27T00:15:59.200Z,4.02
2023-01-27T00:18:25.978Z,4.10
2023-01-27T00:21:11.310Z,4.10
2023-01-27T00:23:56.452Z,4.15
2023-01-27T00:26:23.219Z,4.06
2023-01-27T00:28:50.158Z,3.99
2023-01-27T00:31:35.905Z,3.90
2023-01-27T00:34:08.551Z,3.92
2023-01-27T00:36:36.712Z,3.78
2023-01-27T00:39:03.503Z,3.76
2023-01-27T00:41:30.171Z,3.70
2023-01-27T00:43:56.735Z,3.69
2023-01-27T00:46:24.409Z,3.65
2023-01-27T00:48:54.299Z,3.58
2023-01-27T00:51:21.048Z,3.54
2023-01-27T00:53:48.113Z,3.54
2023-01-27T00:56:14.902Z,3.51
2023-01-27T00:58:41.453Z,3.42
2023-01-27T01:01:10.562Z,3.24
2023-01-27T01:03:37.402Z,3.22
2023-01-27T01:06:06.063Z,3.27
2023-01-27T01:08:33.746Z,3.28
2023-01-27T01:11:00.431Z,3.21
2023-01-27T01:13:30.454Z,3.14
2023-01-27T01:15:57.441Z,3.08
2023-01-27T01:18:24.508Z,2.90
2023-01-27T01:20:51.048Z,2.94
2023-01-27T01:23:17.660Z,2.95
2023-01-27T01:25:51.944Z,2.97
2023-01-27T01:28:18.466Z,3.01
2023-01-27T01:30:45.079Z,2.99
2023-01-27T01:33:11.947Z,2.94
2023-01-27T01:35:39.173Z,2.94
2023-01-27T01:38:06.183Z,2.94
2023-01-27T01:40:33.040Z,2.93
2023-01-27T01:43:00.904Z,2.88
2023-01-27T01:45:33.831Z,2.70
2023-01-27T01:48:01.975Z,2.70
2023-01-27T01:50:29.105Z,2.66
2023-01-27T01:52:56.099Z,2.68
2023-01-27T01:55:23.451Z,2.66
2023-01-27T01:57:50.560Z,2.65
2023-01-27T02:00:17.639Z,2.63
2023-01-27T02:02:44.597Z,2.52
2023-01-27T02:05:17.438Z,2.52
2023-01-27T02:08:02.552Z,2.57
2023-01-27T02:10:29.145Z,2.53
2023-01-27T02:12:56.165Z,2.52
2023-01-27T02:15:22.811Z,2.49
2023-01-27T02:17:49.615Z,2.46
2023-01-27T02:20:18.960Z,2.40
2023-01-27T02:22:45.496Z,2.46
2023-01-27T02:25:18.259Z,2.43
2023-01-27T02:27:44.810Z,2.41
2023-01-27T02:30:11.447Z,2.38
2023-01-27T02:32:39.982Z,2.34
2023-01-27T02:35:08.392Z,2.34
2023-01-27T02:37:35.298Z,2.35
2023-01-27T02:40:03.110Z,2.40
2023-01-27T02:42:29.734Z,2.41
2023-01-27T02:44:56.326Z,2.41
2023-01-27T02:47:23.072Z,2.45
2023-01-27T02:49:49.687Z,2.38
2023-01-27T02:52:16.238Z,2.29
2023-01-27T02:54:42.842Z,2.28
2023-01-27T02:57:09.389Z,2.24
2023-01-27T02:59:36.036Z,2.20
2023-01-27T03:02:02.575Z,2.09
2023-01-27T03:04:29.115Z,2.13
2023-01-27T03:06:55.674Z,2.06
2023-01-27T03:09:22.240Z,2.05
2023-01-27T03:12:07.388Z,2.07
2023-01-27T03:14:52.313Z,2.11
2023-01-27T03:17:37.399Z,2.13
2023-01-27T03:20:04.243Z,2.15
2023-01-27T03:22:30.784Z,2.09
2023-01-27T03:24:57.419Z,1.94
2023-01-27T03:27:23.946Z,1.96
2023-01-27T03:29:56.710Z,1.98
2023-01-27T03:32:23.983Z,1.99
2023-01-27T03:34:50.561Z,1.88
2023-01-27T03:37:35.674Z,1.86
2023-01-27T03:40:20.816Z,1.89
2023-01-27T03:43:06.010Z,1.82
2023-01-27T03:45:51.272Z,1.75
2023-01-27T03:48:20.976Z,1.74
2023-01-27T03:50:53.273Z,1.66
2023-01-27T03:53:20.454Z,1.69
2023-01-27T03:55:47.440Z,1.74
2023-01-27T03:58:21.711Z,1.71
2023-01-27T04:00:52.800Z,1.66
2023-01-27T04:03:38.468Z,1.68
2023-01-27T04:06:24.479Z,1.64
2023-01-27T04:08:51.169Z,1.58
2023-01-27T04:11:36.404Z,1.58
2023-01-27T04:14:06.927Z,1.57
2023-01-27T04:16:34.539Z,1.60
2023-01-27T04:19:01.185Z,1.53
2023-01-27T04:21:27.782Z,1.57
2023-01-27T04:23:54.437Z,1.63
2023-01-27T04:26:21.630Z,1.61
2023-01-27T04:28:48.937Z,1.56
2023-01-27T04:31:16.254Z,1.60
2023-01-27T04:33:43.609Z,1.59
2023-01-27T04:36:10.496Z,1.37
2023-01-27T04:38:37.272Z,1.30
2023-01-27T04:41:04.080Z,1.45
2023-01-27T04:43:30.625Z,1.48
2023-01-27T04:45:57.205Z,1.44
2023-01-27T04:48:24.108Z,1.44
2023-01-27T04:50:50.695Z,1.50
2023-01-27T04:53:17.255Z,1.45
2023-01-27T04:55:46.611Z,1.44
2023-01-27T04:58:13.647Z,1.32
2023-01-27T05:00:40.480Z,1.31
2023-01-27T05:03:09.564Z,1.30
2023-01-27T05:05:36.455Z,1.29
2023-01-27T05:08:07.083Z,1.34
2023-01-27T05:10:33.651Z,1.37
2023-01-27T05:13:01.936Z,1.33
2023-01-27T05:15:29.049Z,1.29
2023-01-27T05:17:55.601Z,1.20
2023-01-27T05:20:22.438Z,1.08
2023-01-27T05:22:50.657Z,1.06
2023-01-27T05:25:17.245Z,1.11
2023-01-27T05:27:44.103Z,1.14
2023-01-27T05:30:10.892Z,1.18
2023-01-27T05:32:37.478Z,1.12
2023-01-27T05:35:04.153Z,1.20
2023-01-27T05:37:30.720Z,1.23
2023-01-27T05:39:58.822Z,1.24
2023-01-27T05:42:25.350Z,1.21
2023-01-27T05:44:51.874Z,1.22
2023-01-27T05:47:18.483Z,1.34
2023-01-27T05:49:45.056Z,1.31
2023-01-27T05:52:11.618Z,1.37
2023-01-27T05:54:38.210Z,1.42
2023-01-27T05:57:04.748Z,1.38
2023-01-27T05:59:31.318Z,1.46
2023-01-27T06:01:57.873Z,1.50
2023-01-27T06:04:24.488Z,1.48
2023-01-27T06:06:51.001Z,1.47
2023-01-27T06:09:17.516Z,1.42
2023-01-27T06:11:44.078Z,1.44
2023-01-27T06:14:10.671Z,1.40
2023-01-27T06:16:37.245Z,1.44
2023-01-27T06:19:03.791Z,1.49
2023-01-27T06:21:30.323Z,1.48
2023-01-27T06:23:58.364Z,1.52
2023-01-27T06:26:25.049Z,1.49
2023-01-27T06:28:51.628Z,1.54
2023-01-27T06:31:19.908Z,1.56
2023-01-27T06:33:46.526Z,1.56
2023-01-27T06:36:14.315Z,1.52
2023-01-27T06:38:41.091Z,1.57
2023-01-27T06:41:07.691Z,1.58
2023-01-27T06:43:34.582Z,1.60
2023-01-27T06:46:03.028Z,1.56
2023-01-27T06:48:31.023Z,1.57
2023-01-27T06:50:58.460Z,1.57
2023-01-27T06:53:25.088Z,1.55
2023-01-27T06:55:58.636Z,1.38
2023-01-27T06:58:25.659Z,1.22
2023-01-27T07:00:52.421Z,1.20
2023-01-27T07:03:19.016Z,1.01
2023-01-27T07:05:45.586Z,0.84
2023-01-27T07:08:12.218Z,0.71
2023-01-27T07:10:39.532Z,0.69
2023-01-27T07:13:06.255Z,0.69
2023-01-27T07:15:32.985Z,0.90
2023-01-27T07:18:00.367Z,0.96
2023-01-27T07:20:29.732Z,0.86
2023-01-27T07:22:57.281Z,0.70
2023-01-27T07:25:23.814Z,0.82
2023-01-27T07:27:50.567Z,0.93
2023-01-27T07:30:17.449Z,1.06
2023-01-27T07:32:43.974Z,1.10
2023-01-27T07:35:10.538Z,0.90
2023-01-27T07:37:38.337Z,0.76
2023-01-27T07:40:05.417Z,0.61
2023-01-27T07:42:32.044Z,0.46
2023-01-27T07:44:58.559Z,0.57
2023-01-27T07:47:25.192Z,0.44
2023-01-27T07:49:51.872Z,0.35
2023-01-27T07:52:18.477Z,0.38
2023-01-27T07:54:45.141Z,0.54
2023-01-27T07:57:11.669Z,0.63
2023-01-27T07:59:38.256Z,0.64
2023-01-27T08:02:04.919Z,0.79
2023-01-27T08:04:37.452Z,0.86
2023-01-27T08:07:10.078Z,0.93
2023-01-27T08:09:36.660Z,0.99
2023-01-27T08:12:03.241Z,1.01
2023-01-27T08:14:29.799Z,0.93
2023-01-27T08:16:56.389Z,0.87
2023-01-27T08:19:22.948Z,1.02
2023-01-27T08:21:49.475Z,1.10
2023-01-27T08:24:16.036Z,1.06
2023-01-27T08:26:42.614Z,1.10
2023-01-27T08:29:09.137Z,1.12
2023-01-27T08:31:35.714Z,1.19
2023-01-27T08:34:02.344Z,1.26
2023-01-27T08:36:28.940Z,1.35
2023-01-27T08:38:55.850Z,1.38
2023-01-27T08:41:23.965Z,1.37
2023-01-27T08:43:50.720Z,1.44
2023-01-27T08:46:17.678Z,1.38
2023-01-27T08:48:44.445Z,1.59
2023-01-27T08:51:12.661Z,1.60
2023-01-27T08:53:39.611Z,1.85
2023-01-27T08:56:07.787Z,2.01
2023-01-27T08:58:35.077Z,2.12
2023-01-27T09:01:02.602Z,2.36
2023-01-27T09:03:30.335Z,2.52
2023-01-27T09:05:57.204Z,2.41
2023-01-27T09:08:24.042Z,2.04
2023-01-27T09:10:50.667Z,2.22
2023-01-27T09:13:18.939Z,2.35
2023-01-27T09:15:46.546Z,2.24
2023-01-27T09:18:13.150Z,2.23
2023-01-27T09:20:39.747Z,2.29
2023-01-27T09:23:06.370Z,2.27
2023-01-27T09:25:32.897Z,2.15
2023-01-27T09:28:00.028Z,2.21
2023-01-27T09:30:27.528Z,2.05
2023-01-27T09:32:57.600Z,1.93
2023-01-27T09:35:24.347Z,1.56
2023-01-27T09:37:54.307Z,1.61
2023-01-27T09:40:32.006Z,1.86
2023-01-27T09:43:17.420Z,1.90
2023-01-27T09:46:01.895Z,1.81
2023-01-27T09:48:37.526Z,1.81
2023-01-27T09:51:32.628Z,1.70
2023-01-27T09:54:18.608Z,1.56
2023-01-27T09:57:08.770Z,1.82
2023-01-27T09:59:38.333Z,1.80
2023-01-27T10:02:11.256Z,1.97
2023-01-27T10:04:43.898Z,2.04
2023-01-27T10:07:23.331Z,2.20
2023-01-27T10:09:59.166Z,2.25
2023-01-27T10:12:44.583Z,2.39
2023-01-27T10:15:14.119Z,2.62
2023-01-27T10:17:53.318Z,2.66
2023-01-27T10:20:35.107Z,2.57
2023-01-27T10:23:34.210Z,2.62
2023-01-27T10:26:12.447Z,2.75
2023-01-27T10:28:47.946Z,2.74
2023-01-27T10:31:24.012Z,2.87
2023-01-27T10:33:54.928Z,3.04
2023-01-27T10:36:26.502Z,3.30
2023-01-27T10:38:56.050Z,3.22
2023-01-27T10:41:40.764Z,3.27
2023-01-27T10:44:23.206Z,3.37
2023-01-27T10:47:08.577Z,3.48
2023-01-27T10:49:35.140Z,3.56
2023-01-27T10:52:09.912Z,3.57
2023-01-27T10:54:42.063Z,3.61
2023-01-27T10:57:19.191Z,3.61
2023-01-27T11:00:14.344Z,3.52
2023-01-27T11:02:45.847Z,3.50
2023-01-27T11:05:17.434Z,3.50
2023-01-27T11:07:47.436Z,3.36
2023-01-27T11:10:17.199Z,3.22
2023-01-27T11:12:47.338Z,3.23
2023-01-27T11:15:34.026Z,3.13
2023-01-27T11:18:16.229Z,3.29
2023-01-27T11:20:45.922Z,3.01
2023-01-27T11:23:17.805Z,3.20
2023-01-27T11:26:03.115Z,3.02
2023-01-27T11:28:37.547Z,3.11
2023-01-27T11:31:23.082Z,3.09
2023-01-27T11:33:52.465Z,2.94
2023-01-27T11:36:18.965Z,2.85
2023-01-27T11:38:45.870Z,3.08
2023-01-27T11:41:12.766Z,3.17
2023-01-27T11:43:40.195Z,2.83
2023-01-27T11:46:07.809Z,3.00
2023-01-27T11:48:42.539Z,2.96
2023-01-27T11:51:22.970Z,3.23
2023-01-27T11:53:53.550Z,2.93
2023-01-27T11:56:20.272Z,2.97
2023-01-27T11:59:02.167Z,3.17
2023-01-27T12:01:34.963Z,3.25
2023-01-27T12:04:07.357Z,3.37
2023-01-27T12:06:55.492Z,3.53
2023-01-27T12:09:33.178Z,3.42
2023-01-27T12:12:11.912Z,3.54
2023-01-27T12:14:38.574Z,3.62
2023-01-27T12:17:06.032Z,3.77
2023-01-27T12:19:36.035Z,3.88
2023-01-27T12:22:07.239Z,3.98
2023-01-27T12:24:36.260Z,4.11
2023-01-27T12:27:04.581Z,4.19
2023-01-27T12:29:37.635Z,4.28
2023-01-27T12:32:04.393Z,4.29
2023-01-27T12:34:36.234Z,4.53
2023-01-27T12:37:04.574Z,4.69
2023-01-27T12:39:57.643Z,4.77
2023-01-27T12:42:53.489Z,4.83
2023-01-27T12:45:21.541Z,4.80
2023-01-27T12:47:57.079Z,4.87
2023-01-27T12:50:25.102Z,4.89
2023-01-27T12:53:03.380Z,5.00
2023-01-27T12:55:38.888Z,4.95
2023-01-27T12:58:05.701Z,4.96
2023-01-27T13:00:33.678Z,4.56
2023-01-27T13:03:04.638Z,4.51
2023-01-27T13:05:36.025Z,4.58
2023-01-27T13:08:02.582Z,4.60
2023-01-27T13:10:29.141Z,4.62
2023-01-27T13:12:57.349Z,4.69
2023-01-27T13:15:25.390Z,4.80
2023-01-27T13:17:53.263Z,4.79
2023-01-27T13:20:25.483Z,4.86
2023-01-27T13:22:59.962Z,4.83
2023-01-27T13:25:29.681Z,4.87
2023-01-27T13:27:59.402Z,4.91
2023-01-27T13:30:29.150Z,4.97
2023-01-27T13:32:59.701Z,5.03
2023-01-27T13:35:31.525Z,5.02
2023-01-27T13:38:04.794Z,5.21
2023-01-27T13:40:37.203Z,5.25
2023-01-27T13:43:23.579Z,5.33
2023-01-27T13:46:00.530Z,5.39
2023-01-27T13:48:29.740Z,5.44
2023-01-27T13:51:09.924Z,5.48
2023-01-27T13:53:36.872Z,5.26
2023-01-27T13:56:09.764Z,5.46
2023-01-27T13:58:46.959Z,5.36
2023-01-27T14:01:49.070Z,5.36
2023-01-27T14:04:34.281Z,5.43
2023-01-27T14:07:05.943Z,5.55
2023-01-27T14:09:40.642Z,5.55
2023-01-27T14:12:22.647Z,5.56
2023-01-27T14:14:58.132Z,5.53
2023-01-27T14:17:34.650Z,5.39
2023-01-27T14:20:36.550Z,5.38
2023-01-27T14:23:21.937Z,5.47
2023-01-27T14:25:54.767Z,5.56
2023-01-27T14:28:24.173Z,5.59
2023-01-27T14:31:11.505Z,5.56
2023-01-27T14:33:42.955Z,5.55
2023-01-27T14:36:13.368Z,5.29
2023-01-27T14:38:39.860Z,5.23
2023-01-27T14:41:09.529Z,5.23
2023-01-27T14:43:40.297Z,5.26
2023-01-27T14:46:25.652Z,5.25
2023-01-27T14:49:01.304Z,5.23
2023-01-27T14:51:46.071Z,5.24
2023-01-27T14:54:15.466Z,5.19
2023-01-27T14:57:00.383Z,5.22
2023-01-27T14:59:42.204Z,5.28
2023-01-27T15:02:21.098Z,5.28
2023-01-27T15:04:53.785Z,5.28
2023-01-27T15:07:35.144Z,5.26
2023-01-27T15:10:04.826Z,5.19
2023-01-27T15:12:37.540Z,5.14
2023-01-27T15:15:19.508Z,5.17
2023-01-27T15:17:55.331Z,5.18
2023-01-27T15:20:31.223Z,5.19
2023-01-27T15:23:16.477Z,5.17
2023-01-27T15:25:57.547Z,5.22
2023-01-27T15:28:28.676Z,5.23
2023-01-27T15:31:14.044Z,5.18
2023-01-27T15:34:09.768Z,5.16
2023-01-27T15:36:40.510Z,5.18
2023-01-27T15:39:10.061Z,5.16
2023-01-27T15:41:36.797Z,5.17
2023-01-27T15:44:25.706Z,5.11
2023-01-27T15:46:56.400Z,5.09
2023-01-27T15:49:24.703Z,5.08
2023-01-27T15:51:53.464Z,5.02
2023-01-27T15:54:27.885Z,5.03
2023-01-27T15:56:55.173Z,4.99
2023-01-27T15:59:26.702Z,4.94
2023-01-27T16:02:05.252Z,4.93
2023-01-27T16:04:33.319Z,4.87
2023-01-27T16:07:04.420Z,4.86
2023-01-27T16:09:34.262Z,4.88
2023-01-27T16:12:02.322Z,4.89
2023-01-27T16:14:39.719Z,4.84
2023-01-27T16:17:18.436Z,4.75
2023-01-27T16:20:00.144Z,4.67
2023-01-27T16:22:28.818Z,4.66
2023-01-27T16:24:58.868Z,4.58
2023-01-27T16:27:31.413Z,4.56
2023-01-27T16:29:58.779Z,4.56
2023-01-27T16:32:29.927Z,4.51
2023-01-27T16:34:59.597Z,4.40
2023-01-27T16:37:28.350Z,4.31
2023-01-27T16:40:14.937Z,4.24
2023-01-27T16:43:01.734Z,4.16
2023-01-27T16:45:30.666Z,4.08
2023-01-27T16:47:59.323Z,3.98
2023-01-27T16:50:36.714Z,3.94
2023-01-27T16:53:05.379Z,3.89
2023-01-27T16:55:31.956Z,3.78
2023-01-27T16:57:59.974Z,3.63
2023-01-27T17:00:28.644Z,3.55
2023-01-27T17:02:57.121Z,3.48
2023-01-27T17:05:23.695Z,3.41
2023-01-27T17:08:02.534Z,3.31
2023-01-27T17:10:34.754Z,3.21
2023-01-27T17:13:01.732Z,3.15
2023-01-27T17:15:29.080Z,3.20
2023-01-27T17:17:56.371Z,3.22
2023-01-27T17:20:22.960Z,3.21
2023-01-27T17:22:54.240Z,3.14
2023-01-27T17:25:23.513Z,3.16
2023-01-27T17:27:50.167Z,3.15
2023-01-27T17:30:24.413Z,3.11
2023-01-27T17:32:58.437Z,3.14
2023-01-27T17:35:36.259Z,3.12
2023-01-27T17:38:05.684Z,3.13
2023-01-27T17:40:35.551Z,3.14
2023-01-27T17:43:02.167Z,2.95
2023-01-27T17:45:30.099Z,2.89
2023-01-27T17:48:00.529Z,2.92
2023-01-27T17:50:38.192Z,3.01
2023-01-27T17:53:10.652Z,3.06
2023-01-27T17:55:37.593Z,3.02
2023-01-27T17:58:05.683Z,3.05
2023-01-27T18:00:35.660Z,3.09
2023-01-27T18:03:09.678Z,3.08
2023-01-27T18:05:38.172Z,3.02
2023-01-27T18:08:05.235Z,2.99
2023-01-27T18:10:34.854Z,3.06
2023-01-27T18:13:12.503Z,3.16
2023-01-27T18:15:39.285Z,3.22
2023-01-27T18:18:28.309Z,3.30
2023-01-27T18:21:01.376Z,3.31
2023-01-27T18:23:43.377Z,3.43
2023-01-27T18:26:15.977Z,3.46
2023-01-27T18:28:43.196Z,3.46
2023-01-27T18:31:15.720Z,3.50
2023-01-27T18:33:43.769Z,3.42
2023-01-27T18:36:22.351Z,3.41
2023-01-27T18:38:50.544Z,3.26
2023-01-27T18:41:29.056Z,3.12
2023-01-27T18:43:56.425Z,3.01
2023-01-27T18:46:23.265Z,2.97
2023-01-27T18:48:49.900Z,2.94
2023-01-27T18:51:17.130Z,2.92
2023-01-27T18:53:43.725Z,2.82
2023-01-27T18:56:10.968Z,2.77
2023-01-27T18:58:38.615Z,2.65
2023-01-27T19:01:18.737Z,2.67
2023-01-27T19:03:45.554Z,2.73
2023-01-27T19:06:15.251Z,2.81
2023-01-27T19:08:42.150Z,3.08
2023-01-27T19:11:15.526Z,3.21
2023-01-27T19:13:43.087Z,3.18
2023-01-27T19:16:12.454Z,2.98
2023-01-27T19:18:40.339Z,2.85
2023-01-27T19:21:06.953Z,2.88
2023-01-27T19:23:33.550Z,2.71
2023-01-27T19:26:01.252Z,2.64
2023-01-27T19:28:32.088Z,2.69
2023-01-27T19:30:59.208Z,2.78
2023-01-27T19:33:26.938Z,2.85
2023-01-27T19:35:54.568Z,2.86
2023-01-27T19:38:21.874Z,2.81
2023-01-27T19:40:48.431Z,2.81
2023-01-27T19:43:15.500Z,2.80
2023-01-27T19:45:42.254Z,2.78
2023-01-27T19:48:13.439Z,2.81
2023-01-27T19:50:40.160Z,2.71
2023-01-27T19:53:06.824Z,2.70
2023-01-27T19:55:33.906Z,2.54
2023-01-27T19:58:00.561Z,2.55
2023-01-27T20:00:28.576Z,2.53
2023-01-27T20:02:56.023Z,2.43
2023-01-27T20:05:23.265Z,2.42
2023-01-27T20:07:50.307Z,2.51
2023-01-27T20:10:18.416Z,2.60
2023-01-27T20:12:45.965Z,2.69
2023-01-27T20:15:17.441Z,2.67
2023-01-27T20:17:44.293Z,2.66
2023-01-27T20:20:11.019Z,2.71
2023-01-27T20:22:37.519Z,2.71
2023-01-27T20:25:04.450Z,2.79
2023-01-27T20:27:31.090Z,2.82
2023-01-27T20:29:57.648Z,2.83
2023-01-27T20:32:24.523Z,2.85
2023-01-27T20:34:51.234Z,2.94
2023-01-27T20:37:17.766Z,2.95
2023-01-27T20:39:44.263Z,3.04
2023-01-27T20:42:10.770Z,3.03
2023-01-27T20:44:37.336Z,3.06
2023-01-27T20:47:03.869Z,3.11
2023-01-27T20:49:30.555Z,3.15
2023-01-27T20:51:57.185Z,3.21
2023-01-27T20:54:23.774Z,3.28
2023-01-27T20:56:50.275Z,3.35
2023-01-27T20:59:16.760Z,3.52
2023-01-27T21:01:44.989Z,3.63
2023-01-27T21:04:11.668Z,3.76
2023-01-27T21:06:38.299Z,3.79
2023-01-27T21:09:04.980Z,3.52
2023-01-27T21:11:31.606Z,3.21
2023-01-27T21:13:58.259Z,3.16
2023-01-27T21:16:24.991Z,3.23
2023-01-27T21:18:51.870Z,3.20
2023-01-27T21:21:27.079Z,3.21
2023-01-27T21:23:54.296Z,3.17
2023-01-27T21:26:20.854Z,3.22
2023-01-27T21:28:47.640Z,3.22
2023-01-27T21:31:16.462Z,3.29
2023-01-27T21:33:45.726Z,3.36
2023-01-27T21:36:12.596Z,3.40
2023-01-27T21:38:39.392Z,3.52
2023-01-27T21:41:07.025Z,3.62
2023-01-27T21:43:52.303Z,3.67
2023-01-27T21:46:19.300Z,3.74
2023-01-27T21:48:46.079Z,3.81
2023-01-27T21:51:12.831Z,3.87
2023-01-27T21:53:39.612Z,3.93
2023-01-27T21:56:06.813Z,3.95
2023-01-27T21:58:33.439Z,3.93
2023-01-27T22:01:10.093Z,3.92
2023-01-27T22:03:37.480Z,3.94
2023-01-27T22:06:05.578Z,3.91
2023-01-27T22:08:32.238Z,3.93
2023-01-27T22:11:02.283Z,3.98
2023-01-27T22:13:28.883Z,4.02
2023-01-27T22:15:55.684Z,3.99
2023-01-27T22:18:22.385Z,3.97
2023-01-27T22:20:48.996Z,4.01
2023-01-27T22:23:16.704Z,4.10
2023-01-27T22:25:47.512Z,4.17
2023-01-27T22:28:14.018Z,4.22
2023-01-27T22:30:40.562Z,4.26
2023-01-27T22:33:07.115Z,4.26
2023-01-27T22:35:33.723Z,4.21
2023-01-27T22:38:00.551Z,4.12
2023-01-27T22:40:27.444Z,3.77
2023-01-27T22:42:54.023Z,3.34
2023-01-27T22:45:20.564Z,3.30
2023-01-27T22:47:47.218Z,3.31
2023-01-27T22:50:13.890Z,3.23
2023-01-27T22:52:40.562Z,3.22
2023-01-27T22:55:08.341Z,3.15
2023-01-27T22:57:35.136Z,3.17
2023-01-27T23:00:02.119Z,3.19
2023-01-27T23:02:29.916Z,3.19
2023-01-27T23:04:56.983Z,3.16
2023-01-27T23:07:23.712Z,3.19
2023-01-27T23:09:50.359Z,3.17
2023-01-27T23:12:17.052Z,3.09
2023-01-27T23:14:43.667Z,3.01
2023-01-27T23:17:10.337Z,2.96
2023-01-27T23:19:36.868Z,2.99
2023-01-27T23:22:03.399Z,3.04
2023-01-27T23:24:30.000Z,3.10
2023-01-27T23:26:56.605Z,3.31
2023-01-27T23:29:25.301Z,3.37
2023-01-27T23:31:52.862Z,3.42
2023-01-27T23:34:19.643Z,3.30
2023-01-27T23:36:46.200Z,3.33
2023-01-27T23:39:14.416Z,3.32
2023-01-27T23:41:41.067Z,3.28
2023-01-27T23:44:10.167Z,3.23
2023-01-27T23:46:36.671Z,3.17
2023-01-27T23:49:03.485Z,3.17
2023-01-27T23:51:30.154Z,3.15
2023-01-27T23:53:56.654Z,3.15
2023-01-27T23:56:23.195Z,3.11
2023-01-27T23:58:49.707Z,3.20
